Salida, CO

2:16 AM MDT on June 25, 2017 (GMT -0600)
Salida

Weather History for KANK - December, 2011

Change the Weather History Date:

Sunday, December 11, 2011

  Actual Average (KGUC) Record (KGUC)
Temperature  
Mean Temperature 28 °F -  
Max Temperature 41 °F 25 °F 48 °F (2015)
Min Temperature 16 °F 1 °F -18 °F (2005)
Degree Days  
Heating Degree Days 36    
Moisture  
Dew Point 11 °F    
Average Humidity 52    
Maximum Humidity 69    
Minimum Humidity 32    
Precipitation  
Precipitation 0.00 in - - ()
Sea Level Pressure  
Sea Level Pressure 30.08 in    
Wind  
Wind Speed 10 mph (NW)    
Max Wind Speed 20 mph    
Max Gust Speed 26 mph    
Visibility 10 miles    
Events      
Averages and records for this station are not official NWS values.
T = Trace of Precipitation, MM = Missing Value Source: NWS Daily Summary

Daily Weather History Graph

Daily Weather History Graph

Search for Another Location

Airport or City:

Trip Planner

Search our weather history database for the weather conditions in past years. The results will help you decide how hot, cold, wet, or windy it might be!

Date:

Astronomy

Dec. 11, 2011 Rise Set
Actual Time 7:11 AM MST 4:43 PM MST
Civil Twilight 6:41 AM MST 5:12 PM MST
Nautical Twilight 6:08 AM MST 5:46 PM MST
Astronomical Twilight 5:36 AM MST 6:18 PM MST
Moon 5:56 PM MST (12/11) 8:01 AM MST (12/11)
Length of Visible Light 10h 31m
Length of Day
9h 31m
Full, 99% of the Moon is Illuminated
Dec 11
Full
Dec 17
Last Quarter
Dec 24
New
Dec 31
First Quarter
Jan 9
Full

Hourly Weather History & Observations

Time (MST) Temp. Windchill Dew Point Humidity Pressure Visibility Wind Dir Wind Speed Gust Speed Precip Events Conditions
12:15 AM 21.2 °F 10.9 °F 10.9 °F 65% 30.22 in 10.0 mi NNW 9.2 mph - N/A   Clear
12:35 AM 20.1 °F 8.8 °F 10.4 °F 66% 30.22 in 10.0 mi NNW 10.4 mph - N/A   Clear
12:55 AM 19.8 °F 7.1 °F 10.0 °F 66% 30.21 in 10.0 mi North 12.7 mph 17.3 mph N/A   Clear
1:15 AM 20.1 °F 8.1 °F 10.0 °F 65% 30.20 in 10.0 mi NNW 11.5 mph - N/A   Clear
1:35 AM 19.4 °F 6.6 °F 9.5 °F 65% 30.19 in 10.0 mi NNW 12.7 mph 16.1 mph N/A   Clear
1:55 AM 19.4 °F 7.2 °F 9.3 °F 65% 30.19 in 10.0 mi NNW 11.5 mph - N/A   Clear
2:15 AM 19.4 °F 10.4 °F 9.1 °F 64% 30.19 in 10.0 mi NW 6.9 mph - N/A   Clear
2:35 AM 19.4 °F 6.6 °F 9.0 °F 64% 30.18 in 10.0 mi NNW 12.7 mph 18.4 mph N/A   Clear
2:55 AM 19.4 °F 7.2 °F 8.8 °F 63% 30.17 in 10.0 mi NNW 11.5 mph - N/A   Clear
3:15 AM 19.2 °F 5.8 °F 8.8 °F 64% 30.16 in 10.0 mi NNW 13.8 mph 20.7 mph N/A   Clear
3:35 AM 19.8 °F 8.3 °F 8.6 °F 62% 30.15 in 10.0 mi NNW 10.4 mph - N/A   Clear
3:55 AM 18.9 °F 5.9 °F 8.6 °F 64% 30.14 in 10.0 mi NNW 12.7 mph 19.6 mph N/A   Clear
4:15 AM 20.1 °F 6.4 °F 9.3 °F 63% 30.13 in 10.0 mi NNW 15.0 mph - N/A   Clear
4:35 AM 20.1 °F 9.5 °F 8.6 °F 61% 30.13 in 10.0 mi NW 9.2 mph 21.9 mph N/A   Clear
4:55 AM 18.7 °F 5.7 °F 8.2 °F 64% 30.12 in 10.0 mi NNW 12.7 mph - N/A   Clear
5:15 AM 18.1 °F 5.6 °F 8.2 °F 65% 30.12 in 10.0 mi NNW 11.5 mph 16.1 mph N/A   Clear
5:35 AM 17.6 °F 8.2 °F 8.1 °F 66% 30.12 in 10.0 mi NNW 6.9 mph - N/A   Clear
5:55 AM 17.8 °F 5.9 °F 8.1 °F 66% 30.12 in 10.0 mi NNW 10.4 mph - N/A   Clear
6:15 AM 16.9 °F 6.4 °F 7.7 °F 67% 30.12 in 10.0 mi NNW 8.1 mph 16.1 mph N/A   Clear
6:35 AM 16.2 °F 3.9 °F 7.5 °F 69% 30.11 in 10.0 mi NNW 10.4 mph - N/A   Clear
6:55 AM 17.4 °F 4.7 °F 8.1 °F 67% 30.11 in 10.0 mi NNW 11.5 mph - N/A   Clear
7:15 AM 17.8 °F 8.5 °F 7.9 °F 65% 30.12 in 10.0 mi NW 6.9 mph - N/A   Clear
7:35 AM 18.1 °F 5.6 °F 7.7 °F 64% 30.11 in 10.0 mi NNW 11.5 mph - N/A   Clear
7:55 AM 17.6 °F 12.3 °F 7.5 °F 65% 30.12 in 10.0 mi SW 3.5 mph - N/A   Clear
8:15 AM 17.4 °F 7.1 °F 7.3 °F 65% 30.11 in 10.0 mi North 8.1 mph - N/A   Clear
8:35 AM 19.4 °F 10.4 °F 7.9 °F 61% 30.11 in 10.0 mi NNW 6.9 mph - N/A   Clear
8:55 AM 21.9 °F 12.5 °F 8.2 °F 56% 30.11 in 10.0 mi NNW 8.1 mph - N/A   Clear
9:15 AM 23.0 °F 10.6 °F 9.1 °F 55% 30.10 in 10.0 mi NNW 13.8 mph - N/A   Clear
9:35 AM 24.6 °F 15.1 °F 9.7 °F 53% 30.10 in 10.0 mi North 9.2 mph - N/A   Clear
9:55 AM 26.2 °F - 11.3 °F 53% 30.10 in 10.0 mi Calm Calm - N/A   Clear
10:15 AM 27.5 °F - 11.1 °F 50% 30.09 in 10.0 mi Calm Calm - N/A   Clear
10:55 AM 32.5 °F 24.2 °F 13.5 °F 45% 30.06 in 10.0 mi North 10.4 mph - N/A   Clear
11:15 AM 34.7 °F 28.1 °F 14.5 °F 44% 30.05 in 10.0 mi North 8.1 mph - N/A   Clear
11:35 AM 36.5 °F 31.8 °F 14.4 °F 40% 30.04 in 10.0 mi North 5.8 mph - N/A   Clear
11:55 AM 39.2 °F - 13.1 °F 34% 30.03 in 10.0 mi Calm Calm - N/A   Clear
12:15 PM 38.1 °F 31.2 °F 15.4 °F 40% 30.02 in 10.0 mi SSW 10.4 mph 16.1 mph N/A   Clear
12:35 PM 38.5 °F 30.3 °F 13.8 °F 37% 30.01 in 10.0 mi SSW 13.8 mph 19.6 mph N/A   Clear
12:55 PM 39.7 °F 30.3 °F 14.0 °F 35% 30.00 in 10.0 mi SSW 19.6 mph 24.2 mph N/A   Clear
1:15 PM 38.1 °F 29.1 °F 14.0 °F 37% 29.99 in 10.0 mi SSW 16.1 mph 26.5 mph N/A   Clear
1:35 PM 39.6 °F 31.0 °F 13.5 °F 34% 29.99 in 10.0 mi SSW 16.1 mph 24.2 mph N/A   Clear
1:55 PM 39.6 °F 30.6 °F 12.9 °F 34% 29.98 in 10.0 mi SSW 17.3 mph 23.0 mph N/A   Clear
2:15 PM 39.2 °F 30.2 °F 13.1 °F 34% 29.99 in 10.0 mi SSW 17.3 mph 24.2 mph N/A   Clear
2:35 PM 41.2 °F 34.1 °F 13.3 °F 32% 29.98 in 10.0 mi SSW 12.7 mph 24.2 mph N/A   Clear
2:55 PM 40.8 °F 33.3 °F 13.5 °F 33% 29.98 in 10.0 mi SSW 13.8 mph 24.2 mph N/A   Clear
3:15 PM 39.2 °F 29.8 °F 13.1 °F 34% 29.99 in 10.0 mi SSW 18.4 mph 26.5 mph N/A   Clear
3:35 PM 37.9 °F 28.2 °F 13.5 °F 37% 29.99 in 10.0 mi SSW 18.4 mph 25.3 mph N/A   Clear
3:55 PM 37.6 °F 28.8 °F 12.7 °F 36% 29.99 in 10.0 mi SSW 15.0 mph 19.6 mph N/A   Clear
4:15 PM 36.0 °F 25.6 °F 12.4 °F 38% 29.99 in 10.0 mi SSW 18.4 mph 24.2 mph N/A   Clear
4:55 PM 33.4 °F 24.3 °F 12.7 °F 42% 30.00 in 10.0 mi SSW 12.7 mph 16.1 mph N/A   Clear
5:15 PM 33.1 °F 25.5 °F 12.2 °F 42% 30.00 in 10.0 mi SW 9.2 mph 18.4 mph N/A   Clear
5:35 PM 32.0 °F 22.5 °F 12.9 °F 45% 30.00 in 10.0 mi SSW 12.7 mph 18.4 mph N/A   Clear
6:15 PM 32.9 °F 28.5 °F 11.7 °F 41% 30.02 in 10.0 mi South 4.6 mph - N/A   Clear
6:35 PM 31.8 °F 25.4 °F 12.0 °F 44% 30.03 in 10.0 mi North 6.9 mph - N/A   Clear
7:15 PM 30.0 °F - 11.8 °F 47% 30.04 in 10.0 mi Calm Calm - N/A   Clear
7:55 PM 27.7 °F - 11.1 °F 50% 30.05 in 10.0 mi Calm Calm - N/A   Clear
8:15 PM 26.4 °F 22.4 °F 11.3 °F 53% 30.05 in 10.0 mi SE 3.5 mph - N/A   Clear
8:35 PM 26.4 °F 20.9 °F 11.7 °F 54% 30.06 in 10.0 mi South 4.6 mph - N/A   Clear
8:55 PM 26.8 °F 20.2 °F 10.9 °F 51% 30.06 in 10.0 mi South 5.8 mph - N/A   Clear
9:15 PM 28.8 °F 25.0 °F 10.6 °F 47% 30.07 in 10.0 mi SSW 3.5 mph - N/A   Clear
9:35 PM 28.2 °F 20.2 °F 11.1 °F 49% 30.06 in 10.0 mi SSW 8.1 mph - N/A   Clear
9:55 PM 28.4 °F - 11.1 °F 48% 30.07 in 10.0 mi Calm Calm - N/A   Clear
10:15 PM 27.5 °F - 10.9 °F 50% 30.06 in 10.0 mi Calm Calm - N/A   Clear
10:55 PM 26.2 °F 20.7 °F 11.1 °F 53% 30.07 in 10.0 mi South 4.6 mph - N/A   Clear
11:15 PM 23.7 °F - 11.1 °F 59% 30.07 in 10.0 mi Calm Calm - N/A   Clear
11:35 PM 22.6 °F 18.0 °F 10.6 °F 60% 30.07 in 10.0 mi North 3.5 mph - N/A   Clear
11:55 PM 23.4 °F 12.8 °F 10.4 °F 58% 30.07 in 10.0 mi North 10.4 mph - N/A   Clear